sensor_id;sensor_type;location;lat;lon;timestamp;P1;durP1;ratioP1;P2;durP2;ratioP2
44048;SDS011;29717;47.028;15.470;2023-07-29T00:00:41;4.18;;;3.67;;
44048;SDS011;29717;47.028;15.470;2023-07-29T00:03:09;4.35;;;2.90;;
44048;SDS011;29717;47.028;15.470;2023-07-29T00:05:36;3.50;;;3.20;;
44048;SDS011;29717;47.028;15.470;2023-07-29T00:08:03;3.85;;;3.00;;
44048;SDS011;29717;47.028;15.470;2023-07-29T00:10:31;5.10;;;3.22;;
44048;SDS011;29717;47.028;15.470;2023-07-29T00:12:57;3.58;;;3.17;;
44048;SDS011;29717;47.028;15.470;2023-07-29T00:15:24;6.30;;;3.13;;
44048;SDS011;29717;47.028;15.470;2023-07-29T00:17:51;4.05;;;3.40;;
44048;SDS011;29717;47.028;15.470;2023-07-29T00:20:19;4.03;;;3.20;;
44048;SDS011;29717;47.028;15.470;2023-07-29T00:22:46;4.38;;;3.40;;
44048;SDS011;29717;47.028;15.470;2023-07-29T00:25:14;4.75;;;3.53;;
44048;SDS011;29717;47.028;15.470;2023-07-29T00:27:41;3.17;;;2.90;;
44048;SDS011;29717;47.028;15.470;2023-07-29T00:30:08;3.35;;;3.05;;
44048;SDS011;29717;47.028;15.470;2023-07-29T00:32:35;4.10;;;3.65;;
44048;SDS011;29717;47.028;15.470;2023-07-29T00:35:02;5.80;;;3.15;;
44048;SDS011;29717;47.028;15.470;2023-07-29T00:37:31;4.68;;;3.45;;
44048;SDS011;29717;47.028;15.470;2023-07-29T00:39:57;6.53;;;3.65;;
44048;SDS011;29717;47.028;15.470;2023-07-29T00:42:24;3.50;;;3.20;;
44048;SDS011;29717;47.028;15.470;2023-07-29T00:44:51;3.88;;;3.42;;
44048;SDS011;29717;47.028;15.470;2023-07-29T00:47:17;4.32;;;3.42;;
44048;SDS011;29717;47.028;15.470;2023-07-29T00:49:45;3.85;;;3.22;;
44048;SDS011;29717;47.028;15.470;2023-07-29T00:52:12;5.82;;;3.17;;
44048;SDS011;29717;47.028;15.470;2023-07-29T00:54:40;3.25;;;2.95;;
44048;SDS011;29717;47.028;15.470;2023-07-29T00:57:07;3.97;;;3.22;;
44048;SDS011;29717;47.028;15.470;2023-07-29T00:59:35;4.93;;;3.38;;
44048;SDS011;29717;47.028;15.470;2023-07-29T01:02:02;3.38;;;3.05;;
44048;SDS011;29717;47.028;15.470;2023-07-29T01:04:29;4.15;;;3.55;;
44048;SDS011;29717;47.028;15.470;2023-07-29T01:06:58;5.43;;;3.40;;
44048;SDS011;29717;47.028;15.470;2023-07-29T01:09:29;4.22;;;3.60;;
44048;SDS011;29717;47.028;15.470;2023-07-29T01:12:01;5.25;;;3.63;;
44048;SDS011;29717;47.028;15.470;2023-07-29T01:14:34;5.30;;;3.20;;
44048;SDS011;29717;47.028;15.470;2023-07-29T01:17:03;3.65;;;3.35;;
44048;SDS011;29717;47.028;15.470;2023-07-29T01:19:52;4.20;;;3.53;;
44048;SDS011;29717;47.028;15.470;2023-07-29T01:22:22;4.38;;;3.50;;
44048;SDS011;29717;47.028;15.470;2023-07-29T01:24:51;4.07;;;3.67;;
44048;SDS011;29717;47.028;15.470;2023-07-29T01:27:18;4.82;;;3.00;;
44048;SDS011;29717;47.028;15.470;2023-07-29T01:29:45;4.10;;;3.70;;
44048;SDS011;29717;47.028;15.470;2023-07-29T01:32:26;3.40;;;3.10;;
44048;SDS011;29717;47.028;15.470;2023-07-29T01:34:56;5.45;;;3.30;;
44048;SDS011;29717;47.028;15.470;2023-07-29T01:37:26;3.60;;;3.30;;
44048;SDS011;29717;47.028;15.470;2023-07-29T01:39:54;3.80;;;3.28;;
44048;SDS011;29717;47.028;15.470;2023-07-29T01:42:23;3.95;;;3.15;;
44048;SDS011;29717;47.028;15.470;2023-07-29T01:44:50;4.60;;;3.35;;
44048;SDS011;29717;47.028;15.470;2023-07-29T01:47:16;3.47;;;3.17;;
44048;SDS011;29717;47.028;15.470;2023-07-29T01:49:43;3.63;;;3.30;;
44048;SDS011;29717;47.028;15.470;2023-07-29T01:52:10;4.85;;;3.40;;
44048;SDS011;29717;47.028;15.470;2023-07-29T01:54:36;4.78;;;3.10;;
44048;SDS011;29717;47.028;15.470;2023-07-29T01:57:05;4.68;;;3.30;;
44048;SDS011;29717;47.028;15.470;2023-07-29T01:59:31;4.30;;;3.38;;
44048;SDS011;29717;47.028;15.470;2023-07-29T02:01:58;3.47;;;3.17;;
44048;SDS011;29717;47.028;15.470;2023-07-29T02:04:25;4.38;;;3.88;;
44048;SDS011;29717;47.028;15.470;2023-07-29T02:06:51;7.18;;;4.00;;
44048;SDS011;29717;47.028;15.470;2023-07-29T02:09:18;6.10;;;3.67;;
44048;SDS011;29717;47.028;15.470;2023-07-29T02:11:44;5.47;;;4.20;;
44048;SDS011;29717;47.028;15.470;2023-07-29T02:14:12;4.85;;;3.50;;
44048;SDS011;29717;47.028;15.470;2023-07-29T02:16:39;4.65;;;3.90;;
44048;SDS011;29717;47.028;15.470;2023-07-29T02:19:07;5.13;;;3.80;;
44048;SDS011;29717;47.028;15.470;2023-07-29T02:21:33;3.90;;;3.58;;
44048;SDS011;29717;47.028;15.470;2023-07-29T02:24:00;5.85;;;3.60;;
44048;SDS011;29717;47.028;15.470;2023-07-29T02:26:27;5.47;;;3.40;;
44048;SDS011;29717;47.028;15.470;2023-07-29T02:28:53;3.90;;;3.60;;
44048;SDS011;29717;47.028;15.470;2023-07-29T02:31:22;4.25;;;3.85;;
44048;SDS011;29717;47.028;15.470;2023-07-29T02:33:49;6.38;;;3.85;;
44048;SDS011;29717;47.028;15.470;2023-07-29T02:36:16;4.47;;;3.72;;
44048;SDS011;29717;47.028;15.470;2023-07-29T02:38:43;3.80;;;3.40;;
44048;SDS011;29717;47.028;15.470;2023-07-29T02:41:10;4.55;;;3.80;;
44048;SDS011;29717;47.028;15.470;2023-07-29T02:43:37;6.60;;;3.85;;
44048;SDS011;29717;47.028;15.470;2023-07-29T02:46:04;5.15;;;3.33;;
44048;SDS011;29717;47.028;15.470;2023-07-29T02:48:32;5.97;;;3.78;;
44048;SDS011;29717;47.028;15.470;2023-07-29T02:50:58;6.13;;;3.58;;
44048;SDS011;29717;47.028;15.470;2023-07-29T02:53:25;5.07;;;4.10;;
44048;SDS011;29717;47.028;15.470;2023-07-29T02:55:52;6.03;;;3.88;;
44048;SDS011;29717;47.028;15.470;2023-07-29T02:58:19;5.05;;;3.70;;
44048;SDS011;29717;47.028;15.470;2023-07-29T03:00:45;6.38;;;3.72;;
44048;SDS011;29717;47.028;15.470;2023-07-29T03:03:13;5.65;;;4.07;;
44048;SDS011;29717;47.028;15.470;2023-07-29T03:05:42;4.55;;;3.40;;
44048;SDS011;29717;47.028;15.470;2023-07-29T03:08:08;4.30;;;3.42;;
44048;SDS011;29717;47.028;15.470;2023-07-29T03:10:35;7.88;;;4.00;;
44048;SDS011;29717;47.028;15.470;2023-07-29T03:13:02;4.18;;;3.78;;
44048;SDS011;29717;47.028;15.470;2023-07-29T03:15:29;7.00;;;3.60;;
44048;SDS011;29717;47.028;15.470;2023-07-29T03:17:55;6.57;;;3.53;;
44048;SDS011;29717;47.028;15.470;2023-07-29T03:20:22;5.75;;;3.72;;
44048;SDS011;29717;47.028;15.470;2023-07-29T03:22:50;4.85;;;3.67;;
44048;SDS011;29717;47.028;15.470;2023-07-29T03:25:17;5.22;;;3.70;;
44048;SDS011;29717;47.028;15.470;2023-07-29T03:27:43;3.80;;;3.42;;
44048;SDS011;29717;47.028;15.470;2023-07-29T03:30:10;4.53;;;3.38;;
44048;SDS011;29717;47.028;15.470;2023-07-29T03:32:38;6.38;;;3.50;;
44048;SDS011;29717;47.028;15.470;2023-07-29T03:35:05;3.78;;;3.20;;
44048;SDS011;29717;47.028;15.470;2023-07-29T03:37:32;7.25;;;3.60;;
44048;SDS011;29717;47.028;15.470;2023-07-29T03:40:00;5.45;;;3.92;;
44048;SDS011;29717;47.028;15.470;2023-07-29T03:42:28;4.70;;;3.83;;
44048;SDS011;29717;47.028;15.470;2023-07-29T03:44:54;5.85;;;3.67;;
44048;SDS011;29717;47.028;15.470;2023-07-29T03:47:21;3.55;;;3.22;;
44048;SDS011;29717;47.028;15.470;2023-07-29T03:49:47;4.95;;;3.72;;
44048;SDS011;29717;47.028;15.470;2023-07-29T03:52:14;5.32;;;3.50;;
44048;SDS011;29717;47.028;15.470;2023-07-29T03:54:41;5.90;;;3.80;;
44048;SDS011;29717;47.028;15.470;2023-07-29T03:57:09;3.70;;;3.40;;
44048;SDS011;29717;47.028;15.470;2023-07-29T03:59:36;4.47;;;3.72;;
44048;SDS011;29717;47.028;15.470;2023-07-29T04:02:02;4.65;;;3.55;;
44048;SDS011;29717;47.028;15.470;2023-07-29T04:04:29;3.90;;;3.40;;
44048;SDS011;29717;47.028;15.470;2023-07-29T04:06:56;3.80;;;3.38;;
44048;SDS011;29717;47.028;15.470;2023-07-29T04:09:22;3.85;;;3.55;;
44048;SDS011;29717;47.028;15.470;2023-07-29T04:11:49;4.53;;;3.67;;
44048;SDS011;29717;47.028;15.470;2023-07-29T04:14:18;5.70;;;3.38;;
44048;SDS011;29717;47.028;15.470;2023-07-29T04:16:45;7.38;;;3.80;;
44048;SDS011;29717;47.028;15.470;2023-07-29T04:19:14;3.97;;;3.58;;
44048;SDS011;29717;47.028;15.470;2023-07-29T04:21:41;6.07;;;3.45;;
44048;SDS011;29717;47.028;15.470;2023-07-29T04:24:07;7.78;;;3.63;;
44048;SDS011;29717;47.028;15.470;2023-07-29T04:26:34;5.82;;;3.60;;
44048;SDS011;29717;47.028;15.470;2023-07-29T04:29:01;4.90;;;3.88;;
44048;SDS011;29717;47.028;15.470;2023-07-29T04:31:29;4.75;;;3.80;;
44048;SDS011;29717;47.028;15.470;2023-07-29T04:33:55;7.60;;;4.00;;
44048;SDS011;29717;47.028;15.470;2023-07-29T04:36:22;7.72;;;3.42;;
44048;SDS011;29717;47.028;15.470;2023-07-29T04:38:49;3.80;;;3.42;;
44048;SDS011;29717;47.028;15.470;2023-07-29T04:41:15;4.80;;;3.50;;
44048;SDS011;29717;47.028;15.470;2023-07-29T04:43:42;5.70;;;3.50;;
44048;SDS011;29717;47.028;15.470;2023-07-29T04:46:09;4.65;;;3.60;;
44048;SDS011;29717;47.028;15.470;2023-07-29T04:48:37;6.25;;;3.40;;
44048;SDS011;29717;47.028;15.470;2023-07-29T04:51:03;4.70;;;3.40;;
44048;SDS011;29717;47.028;15.470;2023-07-29T04:53:30;4.40;;;3.45;;
44048;SDS011;29717;47.028;15.470;2023-07-29T04:55:57;6.03;;;3.60;;
44048;SDS011;29717;47.028;15.470;2023-07-29T04:58:23;8.23;;;3.65;;
44048;SDS011;29717;47.028;15.470;2023-07-29T05:00:50;5.40;;;3.70;;
44048;SDS011;29717;47.028;15.470;2023-07-29T05:03:17;5.13;;;3.72;;
44048;SDS011;29717;47.028;15.470;2023-07-29T05:05:45;4.70;;;3.58;;
44048;SDS011;29717;47.028;15.470;2023-07-29T05:08:11;4.72;;;3.35;;
44048;SDS011;29717;47.028;15.470;2023-07-29T05:10:38;4.20;;;3.60;;
44048;SDS011;29717;47.028;15.470;2023-07-29T05:13:05;3.95;;;3.55;;
44048;SDS011;29717;47.028;15.470;2023-07-29T05:15:31;4.95;;;3.75;;
44048;SDS011;29717;47.028;15.470;2023-07-29T05:17:58;4.07;;;3.35;;
44048;SDS011;29717;47.028;15.470;2023-07-29T05:20:25;7.50;;;3.50;;
44048;SDS011;29717;47.028;15.470;2023-07-29T05:22:53;6.30;;;3.78;;
44048;SDS011;29717;47.028;15.470;2023-07-29T05:25:19;7.15;;;3.72;;
44048;SDS011;29717;47.028;15.470;2023-07-29T05:27:46;5.25;;;4.03;;
44048;SDS011;29717;47.028;15.470;2023-07-29T05:30:13;5.03;;;3.65;;
44048;SDS011;29717;47.028;15.470;2023-07-29T05:32:39;3.88;;;3.33;;
44048;SDS011;29717;47.028;15.470;2023-07-29T05:35:06;3.97;;;3.30;;
44048;SDS011;29717;47.028;15.470;2023-07-29T05:37:33;4.10;;;3.80;;
44048;SDS011;29717;47.028;15.470;2023-07-29T05:40:01;6.95;;;3.65;;
44048;SDS011;29717;47.028;15.470;2023-07-29T05:42:29;5.32;;;4.45;;
44048;SDS011;29717;47.028;15.470;2023-07-29T05:44:55;6.95;;;3.85;;
44048;SDS011;29717;47.028;15.470;2023-07-29T05:47:22;4.68;;;4.10;;
44048;SDS011;29717;47.028;15.470;2023-07-29T05:49:49;7.35;;;3.85;;
44048;SDS011;29717;47.028;15.470;2023-07-29T05:52:15;6.35;;;3.90;;
44048;SDS011;29717;47.028;15.470;2023-07-29T05:54:42;4.45;;;4.05;;
44048;SDS011;29717;47.028;15.470;2023-07-29T05:57:10;4.57;;;3.58;;
44048;SDS011;29717;47.028;15.470;2023-07-29T05:59:37;5.03;;;3.83;;
44048;SDS011;29717;47.028;15.470;2023-07-29T06:02:04;5.35;;;3.78;;
44048;SDS011;29717;47.028;15.470;2023-07-29T06:04:31;5.00;;;3.80;;
44048;SDS011;29717;47.028;15.470;2023-07-29T06:06:57;4.15;;;3.75;;
44048;SDS011;29717;47.028;15.470;2023-07-29T06:09:24;5.65;;;3.88;;
44048;SDS011;29717;47.028;15.470;2023-07-29T06:11:51;3.72;;;3.42;;
44048;SDS011;29717;47.028;15.470;2023-07-29T06:14:19;5.15;;;3.70;;
44048;SDS011;29717;47.028;15.470;2023-07-29T06:16:46;4.53;;;3.80;;
44048;SDS011;29717;47.028;15.470;2023-07-29T06:19:12;5.75;;;3.38;;
44048;SDS011;29717;47.028;15.470;2023-07-29T06:21:39;4.07;;;3.60;;
44048;SDS011;29717;47.028;15.470;2023-07-29T06:24:06;5.40;;;3.25;;
44048;SDS011;29717;47.028;15.470;2023-07-29T06:26:33;4.57;;;3.40;;
44048;SDS011;29717;47.028;15.470;2023-07-29T06:28:59;4.38;;;3.97;;
44048;SDS011;29717;47.028;15.470;2023-07-29T06:31:27;4.70;;;3.70;;
44048;SDS011;29717;47.028;15.470;2023-07-29T06:33:54;6.47;;;3.65;;
44048;SDS011;29717;47.028;15.470;2023-07-29T06:36:21;4.78;;;3.47;;
44048;SDS011;29717;47.028;15.470;2023-07-29T06:38:48;3.65;;;3.35;;
44048;SDS011;29717;47.028;15.470;2023-07-29T06:41:14;5.63;;;3.78;;
44048;SDS011;29717;47.028;15.470;2023-07-29T06:43:41;4.88;;;3.70;;
44048;SDS011;29717;47.028;15.470;2023-07-29T06:46:08;3.38;;;3.08;;
44048;SDS011;29717;47.028;15.470;2023-07-29T06:48:36;3.70;;;3.10;;
44048;SDS011;29717;47.028;15.470;2023-07-29T06:51:03;4.43;;;3.78;;
44048;SDS011;29717;47.028;15.470;2023-07-29T06:53:29;4.68;;;3.35;;
44048;SDS011;29717;47.028;15.470;2023-07-29T06:55:56;5.63;;;3.47;;
44048;SDS011;29717;47.028;15.470;2023-07-29T06:58:23;3.83;;;3.00;;
44048;SDS011;29717;47.028;15.470;2023-07-29T07:00:51;3.17;;;2.92;;
44048;SDS011;29717;47.028;15.470;2023-07-29T07:03:17;3.53;;;3.20;;
44048;SDS011;29717;47.028;15.470;2023-07-29T07:05:45;3.78;;;3.33;;
44048;SDS011;29717;47.028;15.470;2023-07-29T07:08:12;5.72;;;3.30;;
44048;SDS011;29717;47.028;15.470;2023-07-29T07:10:39;4.47;;;3.63;;
44048;SDS011;29717;47.028;15.470;2023-07-29T07:13:06;6.38;;;3.40;;
44048;SDS011;29717;47.028;15.470;2023-07-29T07:15:32;5.72;;;3.20;;
44048;SDS011;29717;47.028;15.470;2023-07-29T07:17:59;4.97;;;3.35;;
44048;SDS011;29717;47.028;15.470;2023-07-29T07:20:26;4.00;;;3.17;;
44048;SDS011;29717;47.028;15.470;2023-07-29T07:22:54;6.18;;;2.97;;
44048;SDS011;29717;47.028;15.470;2023-07-29T07:25:20;3.83;;;2.90;;
44048;SDS011;29717;47.028;15.470;2023-07-29T07:27:47;4.00;;;2.63;;
44048;SDS011;29717;47.028;15.470;2023-07-29T07:30:14;2.90;;;2.65;;
44048;SDS011;29717;47.028;15.470;2023-07-29T07:32:40;3.38;;;3.05;;
44048;SDS011;29717;47.028;15.470;2023-07-29T07:35:07;2.90;;;2.63;;
44048;SDS011;29717;47.028;15.470;2023-07-29T07:37:34;5.90;;;3.08;;
44048;SDS011;29717;47.028;15.470;2023-07-29T07:40:02;3.20;;;2.75;;
44048;SDS011;29717;47.028;15.470;2023-07-29T07:42:29;3.17;;;2.70;;
44048;SDS011;29717;47.028;15.470;2023-07-29T07:44:56;3.63;;;2.80;;
44048;SDS011;29717;47.028;15.470;2023-07-29T07:47:22;3.45;;;2.83;;
44048;SDS011;29717;47.028;15.470;2023-07-29T07:49:49;4.28;;;2.58;;
44048;SDS011;29717;47.028;15.470;2023-07-29T07:52:16;2.70;;;2.20;;
44048;SDS011;29717;47.028;15.470;2023-07-29T07:54:42;2.85;;;2.50;;
44048;SDS011;29717;47.028;15.470;2023-07-29T07:57:10;3.45;;;2.25;;
44048;SDS011;29717;47.028;15.470;2023-07-29T07:59:37;3.53;;;2.17;;
44048;SDS011;29717;47.028;15.470;2023-07-29T08:02:04;2.13;;;2.00;;
44048;SDS011;29717;47.028;15.470;2023-07-29T08:04:31;4.55;;;2.38;;
44048;SDS011;29717;47.028;15.470;2023-07-29T08:06:58;3.65;;;2.60;;
44048;SDS011;29717;47.028;15.470;2023-07-29T08:09:24;2.55;;;2.25;;
44048;SDS011;29717;47.028;15.470;2023-07-29T08:11:51;4.70;;;2.35;;
44048;SDS011;29717;47.028;15.470;2023-07-29T08:14:19;2.45;;;2.10;;
44048;SDS011;29717;47.028;15.470;2023-07-29T08:16:46;2.80;;;2.15;;
44048;SDS011;29717;47.028;15.470;2023-07-29T08:19:12;2.75;;;2.35;;
44048;SDS011;29717;47.028;15.470;2023-07-29T08:21:39;4.18;;;2.20;;
44048;SDS011;29717;47.028;15.470;2023-07-29T08:24:06;2.08;;;1.90;;
44048;SDS011;29717;47.028;15.470;2023-07-29T08:26:33;2.08;;;1.88;;
44048;SDS011;29717;47.028;15.470;2023-07-29T08:29:00;4.13;;;2.30;;
44048;SDS011;29717;47.028;15.470;2023-07-29T08:31:28;2.53;;;2.20;;
44048;SDS011;29717;47.028;15.470;2023-07-29T08:33:56;3.97;;;2.35;;
44048;SDS011;29717;47.028;15.470;2023-07-29T08:36:22;5.82;;;2.40;;
44048;SDS011;29717;47.028;15.470;2023-07-29T08:38:49;2.30;;;2.10;;
44048;SDS011;29717;47.028;15.470;2023-07-29T08:41:16;2.75;;;2.50;;
44048;SDS011;29717;47.028;15.470;2023-07-29T08:43:48;3.47;;;2.40;;
44048;SDS011;29717;47.028;15.470;2023-07-29T08:46:16;2.58;;;1.92;;
44048;SDS011;29717;47.028;15.470;2023-07-29T08:48:46;2.78;;;2.15;;
44048;SDS011;29717;47.028;15.470;2023-07-29T08:51:12;3.28;;;2.28;;
44048;SDS011;29717;47.028;15.470;2023-07-29T08:53:39;3.35;;;2.30;;
44048;SDS011;29717;47.028;15.470;2023-07-29T08:56:06;3.78;;;2.10;;
44048;SDS011;29717;47.028;15.470;2023-07-29T08:58:33;2.47;;;2.25;;
44048;SDS011;29717;47.028;15.470;2023-07-29T09:01:00;1.95;;;1.77;;
44048;SDS011;29717;47.028;15.470;2023-07-29T09:03:27;3.30;;;2.03;;
44048;SDS011;29717;47.028;15.470;2023-07-29T09:05:55;2.40;;;2.20;;
44048;SDS011;29717;47.028;15.470;2023-07-29T09:08:23;3.53;;;1.90;;
44048;SDS011;29717;47.028;15.470;2023-07-29T09:10:50;2.28;;;2.05;;
44048;SDS011;29717;47.028;15.470;2023-07-29T09:13:17;2.55;;;2.00;;
44048;SDS011;29717;47.028;15.470;2023-07-29T09:15:45;2.83;;;2.20;;
44048;SDS011;29717;47.028;15.470;2023-07-29T09:18:12;3.50;;;1.88;;
44048;SDS011;29717;47.028;15.470;2023-07-29T09:20:41;2.13;;;1.92;;
44048;SDS011;29717;47.028;15.470;2023-07-29T09:23:09;1.80;;;1.70;;
44048;SDS011;29717;47.028;15.470;2023-07-29T09:25:36;3.20;;;2.00;;
44048;SDS011;29717;47.028;15.470;2023-07-29T09:28:07;1.90;;;1.80;;
44048;SDS011;29717;47.028;15.470;2023-07-29T09:30:34;2.10;;;2.00;;
44048;SDS011;29717;47.028;15.470;2023-07-29T09:33:00;1.92;;;1.83;;
44048;SDS011;29717;47.028;15.470;2023-07-29T09:35:27;4.47;;;1.90;;
44048;SDS011;29717;47.028;15.470;2023-07-29T09:37:54;3.30;;;1.80;;
44048;SDS011;29717;47.028;15.470;2023-07-29T09:40:22;2.10;;;1.90;;
44048;SDS011;29717;47.028;15.470;2023-07-29T09:42:49;1.90;;;1.70;;
44048;SDS011;29717;47.028;15.470;2023-07-29T09:45:20;3.10;;;1.98;;
44048;SDS011;29717;47.028;15.470;2023-07-29T09:47:47;5.68;;;1.92;;
44048;SDS011;29717;47.028;15.470;2023-07-29T09:50:14;2.85;;;2.10;;
44048;SDS011;29717;47.028;15.470;2023-07-29T09:52:41;1.80;;;1.70;;
44048;SDS011;29717;47.028;15.470;2023-07-29T09:55:09;4.28;;;2.00;;
44048;SDS011;29717;47.028;15.470;2023-07-29T09:57:37;1.65;;;1.55;;
44048;SDS011;29717;47.028;15.470;2023-07-29T10:00:05;1.85;;;1.75;;
44048;SDS011;29717;47.028;15.470;2023-07-29T10:02:36;2.03;;;1.83;;
44048;SDS011;29717;47.028;15.470;2023-07-29T10:05:04;3.45;;;1.88;;
44048;SDS011;29717;47.028;15.470;2023-07-29T10:07:31;2.22;;;2.03;;
44048;SDS011;29717;47.028;15.470;2023-07-29T10:09:58;2.08;;;1.90;;
44048;SDS011;29717;47.028;15.470;2023-07-29T10:12:25;3.05;;;1.80;;
44048;SDS011;29717;47.028;15.470;2023-07-29T10:14:54;1.83;;;1.73;;
44048;SDS011;29717;47.028;15.470;2023-07-29T10:17:21;5.53;;;2.17;;
44048;SDS011;29717;47.028;15.470;2023-07-29T10:19:48;1.88;;;1.77;;
44048;SDS011;29717;47.028;15.470;2023-07-29T10:22:15;2.13;;;1.98;;
44048;SDS011;29717;47.028;15.470;2023-07-29T10:24:44;2.70;;;1.85;;
44048;SDS011;29717;47.028;15.470;2023-07-29T10:27:11;1.95;;;1.75;;
44048;SDS011;29717;47.028;15.470;2023-07-29T10:29:41;2.00;;;1.80;;
44048;SDS011;29717;47.028;15.470;2023-07-29T10:32:10;2.97;;;1.90;;
44048;SDS011;29717;47.028;15.470;2023-07-29T10:34:38;1.90;;;1.80;;
44048;SDS011;29717;47.028;15.470;2023-07-29T10:37:05;2.20;;;1.95;;
44048;SDS011;29717;47.028;15.470;2023-07-29T10:39:37;1.98;;;1.88;;
44048;SDS011;29717;47.028;15.470;2023-07-29T10:42:05;2.30;;;1.85;;
44048;SDS011;29717;47.028;15.470;2023-07-29T10:44:48;1.80;;;1.70;;
44048;SDS011;29717;47.028;15.470;2023-07-29T10:47:20;1.80;;;1.70;;
44048;SDS011;29717;47.028;15.470;2023-07-29T10:49:48;2.53;;;1.40;;
44048;SDS011;29717;47.028;15.470;2023-07-29T10:52:16;1.77;;;1.67;;
44048;SDS011;29717;47.028;15.470;2023-07-29T10:54:43;2.00;;;1.80;;
44048;SDS011;29717;47.028;15.470;2023-07-29T10:57:13;1.95;;;1.75;;
44048;SDS011;29717;47.028;15.470;2023-07-29T10:59:40;2.08;;;1.75;;
44048;SDS011;29717;47.028;15.470;2023-07-29T11:02:17;2.22;;;1.70;;
44048;SDS011;29717;47.028;15.470;2023-07-29T11:04:49;1.70;;;1.60;;
44048;SDS011;29717;47.028;15.470;2023-07-29T11:07:21;3.05;;;1.50;;
44048;SDS011;29717;47.028;15.470;2023-07-29T11:09:55;2.05;;;1.70;;
44048;SDS011;29717;47.028;15.470;2023-07-29T11:15:18;1.70;;;1.52;;
44048;SDS011;29717;47.028;15.470;2023-07-29T11:17:46;1.63;;;1.52;;
44048;SDS011;29717;47.028;15.470;2023-07-29T11:20:14;1.70;;;1.60;;
44048;SDS011;29717;47.028;15.470;2023-07-29T11:22:40;3.72;;;1.60;;
44048;SDS011;29717;47.028;15.470;2023-07-29T11:25:07;1.70;;;1.58;;
44048;SDS011;29717;47.028;15.470;2023-07-29T11:27:35;3.13;;;1.85;;
44048;SDS011;29717;47.028;15.470;2023-07-29T11:30:03;2.10;;;1.95;;
44048;SDS011;29717;47.028;15.470;2023-07-29T11:32:30;1.75;;;1.65;;
44048;SDS011;29717;47.028;15.470;2023-07-29T11:35:01;1.65;;;1.50;;
44048;SDS011;29717;47.028;15.470;2023-07-29T11:37:29;2.53;;;1.73;;
44048;SDS011;29717;47.028;15.470;2023-07-29T11:39:55;1.80;;;1.70;;
44048;SDS011;29717;47.028;15.470;2023-07-29T11:42:23;2.33;;;1.60;;
44048;SDS011;29717;47.028;15.470;2023-07-29T11:44:50;2.00;;;1.88;;
44048;SDS011;29717;47.028;15.470;2023-07-29T11:47:17;3.53;;;2.00;;
44048;SDS011;29717;47.028;15.470;2023-07-29T11:49:43;1.90;;;1.80;;
44048;SDS011;29717;47.028;15.470;2023-07-29T11:52:10;2.03;;;1.50;;
44048;SDS011;29717;47.028;15.470;2023-07-29T11:54:39;1.70;;;1.48;;
44048;SDS011;29717;47.028;15.470;2023-07-29T11:57:06;1.95;;;1.63;;
44048;SDS011;29717;47.028;15.470;2023-07-29T11:59:33;1.90;;;1.80;;
44048;SDS011;29717;47.028;15.470;2023-07-29T12:02:00;2.90;;;1.77;;
44048;SDS011;29717;47.028;15.470;2023-07-29T12:04:28;2.20;;;1.90;;
44048;SDS011;29717;47.028;15.470;2023-07-29T12:06:55;2.75;;;2.08;;
44048;SDS011;29717;47.028;15.470;2023-07-29T12:09:22;3.45;;;1.90;;
44048;SDS011;29717;47.028;15.470;2023-07-29T12:11:50;1.90;;;1.80;;
44048;SDS011;29717;47.028;15.470;2023-07-29T12:14:17;2.28;;;2.08;;
44048;SDS011;29717;47.028;15.470;2023-07-29T12:16:44;1.80;;;1.70;;
44048;SDS011;29717;47.028;15.470;2023-07-29T12:19:12;2.08;;;1.88;;
44048;SDS011;29717;47.028;15.470;2023-07-29T12:21:40;1.80;;;1.70;;
44048;SDS011;29717;47.028;15.470;2023-07-29T12:24:07;2.20;;;1.85;;
44048;SDS011;29717;47.028;15.470;2023-07-29T12:26:35;2.05;;;1.70;;
44048;SDS011;29717;47.028;15.470;2023-07-29T12:29:11;3.35;;;1.60;;
44048;SDS011;29717;47.028;15.470;2023-07-29T12:31:39;2.83;;;1.70;;
44048;SDS011;29717;47.028;15.470;2023-07-29T12:34:06;2.33;;;2.08;;
44048;SDS011;29717;47.028;15.470;2023-07-29T12:36:42;3.53;;;1.98;;
44048;SDS011;29717;47.028;15.470;2023-07-29T12:39:16;1.90;;;1.70;;
44048;SDS011;29717;47.028;15.470;2023-07-29T12:41:43;2.45;;;1.80;;
44048;SDS011;29717;47.028;15.470;2023-07-29T12:44:11;1.90;;;1.80;;
44048;SDS011;29717;47.028;15.470;2023-07-29T12:46:38;1.80;;;1.70;;
44048;SDS011;29717;47.028;15.470;2023-07-29T12:49:05;3.17;;;2.67;;
44048;SDS011;29717;47.028;15.470;2023-07-29T12:51:31;1.98;;;1.88;;
44048;SDS011;29717;47.028;15.470;2023-07-29T12:53:58;2.33;;;2.13;;
44048;SDS011;29717;47.028;15.470;2023-07-29T12:56:25;3.78;;;1.73;;
44048;SDS011;29717;47.028;15.470;2023-07-29T12:58:52;3.28;;;2.15;;
44048;SDS011;29717;47.028;15.470;2023-07-29T13:01:20;2.05;;;1.88;;
44048;SDS011;29717;47.028;15.470;2023-07-29T13:03:47;2.30;;;1.90;;
44048;SDS011;29717;47.028;15.470;2023-07-29T13:06:14;3.45;;;2.10;;
44048;SDS011;29717;47.028;15.470;2023-07-29T13:08:41;2.15;;;1.95;;
44048;SDS011;29717;47.028;15.470;2023-07-29T13:11:07;2.60;;;2.40;;
44048;SDS011;29717;47.028;15.470;2023-07-29T13:13:34;3.88;;;2.20;;
44048;SDS011;29717;47.028;15.470;2023-07-29T13:16:01;2.97;;;2.00;;
44048;SDS011;29717;47.028;15.470;2023-07-29T13:18:29;4.00;;;2.03;;
44048;SDS011;29717;47.028;15.470;2023-07-29T13:20:55;2.45;;;2.25;;
44048;SDS011;29717;47.028;15.470;2023-07-29T13:23:22;2.47;;;2.15;;
44048;SDS011;29717;47.028;15.470;2023-07-29T13:25:49;2.40;;;2.20;;
44048;SDS011;29717;47.028;15.470;2023-07-29T13:28:16;4.60;;;2.60;;
44048;SDS011;29717;47.028;15.470;2023-07-29T13:30:42;2.50;;;2.30;;
44048;SDS011;29717;47.028;15.470;2023-07-29T13:33:09;2.83;;;2.30;;
44048;SDS011;29717;47.028;15.470;2023-07-29T13:35:37;2.72;;;2.53;;
44048;SDS011;29717;47.028;15.470;2023-07-29T13:38:04;3.05;;;2.58;;
44048;SDS011;29717;47.028;15.470;2023-07-29T13:40:31;2.95;;;2.30;;
44048;SDS011;29717;47.028;15.470;2023-07-29T13:42:57;5.68;;;2.50;;
44048;SDS011;29717;47.028;15.470;2023-07-29T13:45:24;2.72;;;2.20;;
44048;SDS011;29717;47.028;15.470;2023-07-29T13:47:50;7.07;;;2.42;;
44048;SDS011;29717;47.028;15.470;2023-07-29T13:50:17;4.22;;;2.13;;
44048;SDS011;29717;47.028;15.470;2023-07-29T13:52:45;2.40;;;2.03;;
44048;SDS011;29717;47.028;15.470;2023-07-29T13:55:12;2.50;;;2.30;;
44048;SDS011;29717;47.028;15.470;2023-07-29T13:57:39;3.15;;;2.15;;
44048;SDS011;29717;47.028;15.470;2023-07-29T14:00:06;2.50;;;2.28;;
44048;SDS011;29717;47.028;15.470;2023-07-29T14:02:33;2.50;;;2.30;;
44048;SDS011;29717;47.028;15.470;2023-07-29T14:05:00;2.42;;;2.00;;
44048;SDS011;29717;47.028;15.470;2023-07-29T14:07:27;2.97;;;2.22;;
44048;SDS011;29717;47.028;15.470;2023-07-29T14:09:55;2.20;;;2.00;;
44048;SDS011;29717;47.028;15.470;2023-07-29T14:12:21;2.67;;;2.35;;
44048;SDS011;29717;47.028;15.470;2023-07-29T14:14:48;2.70;;;1.83;;
44048;SDS011;29717;47.028;15.470;2023-07-29T14:17:15;2.88;;;2.60;;
44048;SDS011;29717;47.028;15.470;2023-07-29T14:19:41;2.50;;;2.13;;
44048;SDS011;29717;47.028;15.470;2023-07-29T14:22:08;2.58;;;2.33;;
44048;SDS011;29717;47.028;15.470;2023-07-29T14:24:35;2.75;;;2.22;;
44048;SDS011;29717;47.028;15.470;2023-07-29T14:27:04;2.47;;;2.28;;
44048;SDS011;29717;47.028;15.470;2023-07-29T14:29:31;2.28;;;2.03;;
44048;SDS011;29717;47.028;15.470;2023-07-29T14:31:57;2.30;;;2.10;;
44048;SDS011;29717;47.028;15.470;2023-07-29T14:34:24;2.83;;;2.50;;
44048;SDS011;29717;47.028;15.470;2023-07-29T14:36:51;2.90;;;2.13;;